createdAt,value
2019-03-18T00:00:35.727Z,92.50
2019-03-18T00:03:08.394Z,92.50
2019-03-18T00:05:40.577Z,92.50
2019-03-18T00:08:13.516Z,92.60
2019-03-18T00:10:44.699Z,92.00
2019-03-18T00:13:16.047Z,92.70
2019-03-18T00:15:49.247Z,93.00
2019-03-18T00:18:22.692Z,93.40
2019-03-18T00:20:56.944Z,93.40
2019-03-18T00:23:28.104Z,93.80
2019-03-18T00:26:00.186Z,94.40
2019-03-18T00:28:31.152Z,94.50
2019-03-18T00:31:05.740Z,94.60
2019-03-18T00:33:36.850Z,94.60
2019-03-18T00:36:11.429Z,94.30
2019-03-18T00:38:45.086Z,94.40
2019-03-18T00:41:16.724Z,94.10
2019-03-18T00:43:46.625Z,94.40
2019-03-18T00:46:18.624Z,94.10
2019-03-18T00:48:54.887Z,94.30
2019-03-18T00:51:28.858Z,94.10
2019-03-18T00:54:02.842Z,93.80
2019-03-18T00:56:34.958Z,94.10
2019-03-18T00:59:19.936Z,94.40
2019-03-18T01:01:53.116Z,94.60
2019-03-18T01:04:35.224Z,94.60
2019-03-18T01:07:08.925Z,94.70
2019-03-18T01:09:38.566Z,94.80
2019-03-18T01:12:16.181Z,95.10
2019-03-18T01:14:51.064Z,94.60
2019-03-18T01:17:22.228Z,94.70
2019-03-18T01:19:53.048Z,94.60
2019-03-18T01:22:25.659Z,94.70
2019-03-18T01:24:55.917Z,94.70
2019-03-18T01:27:26.148Z,94.50
2019-03-18T01:29:56.186Z,94.70
2019-03-18T01:32:27.445Z,94.60
2019-03-18T01:34:58.347Z,94.80
2019-03-18T01:37:31.279Z,95.00
2019-03-18T01:40:24.393Z,95.00
2019-03-18T01:42:53.251Z,95.20
2019-03-18T01:45:22.885Z,95.50
2019-03-18T01:47:51.847Z,95.50
2019-03-18T01:50:20.685Z,95.40
2019-03-18T01:52:49.846Z,95.90
2019-03-18T01:55:18.674Z,95.10
2019-03-18T01:57:47.515Z,95.40
2019-03-18T02:00:16.825Z,95.20
2019-03-18T02:02:46.599Z,95.40
2019-03-18T02:05:15.487Z,95.40
2019-03-18T02:07:44.659Z,95.50
2019-03-18T02:10:14.881Z,95.40
2019-03-18T02:12:43.819Z,95.40
2019-03-18T02:15:14.333Z,95.50
2019-03-18T02:17:44.512Z,95.40
2019-03-18T02:20:15.243Z,95.30
2019-03-18T02:23:03.345Z,95.10
2019-03-18T02:25:32.192Z,95.10
2019-03-18T02:28:00.925Z,95.00
2019-03-18T02:30:31.683Z,95.40
2019-03-18T02:33:00.248Z,95.10
2019-03-18T02:35:29.051Z,95.40
2019-03-18T02:37:57.882Z,95.10
2019-03-18T02:40:26.714Z,95.30
2019-03-18T02:42:55.571Z,95.20
2019-03-18T02:45:24.934Z,95.10
2019-03-18T02:47:54.782Z,95.20
2019-03-18T02:50:23.597Z,95.10
2019-03-18T02:52:52.511Z,95.00
2019-03-18T02:55:21.240Z,95.00
2019-03-18T02:57:50.079Z,95.60
2019-03-18T03:00:19.267Z,94.90
2019-03-18T03:02:49.328Z,94.90
2019-03-18T03:05:18.149Z,94.90
2019-03-18T03:07:47.861Z,94.70
2019-03-18T03:10:16.724Z,94.80
2019-03-18T03:12:45.801Z,94.90
2019-03-18T03:15:15.068Z,94.80
2019-03-18T03:17:45.170Z,94.70
2019-03-18T03:20:13.973Z,94.80
2019-03-18T03:22:42.824Z,94.70
2019-03-18T03:25:12.150Z,94.80
2019-03-18T03:27:42.005Z,94.70
2019-03-18T03:30:15.401Z,94.60
2019-03-18T03:32:44.565Z,94.30
2019-03-18T03:35:14.578Z,94.30
2019-03-18T03:37:43.471Z,94.20
2019-03-18T03:40:12.668Z,94.20
2019-03-18T03:42:41.504Z,94.30
2019-03-18T03:45:14.517Z,94.20
2019-03-18T03:48:02.582Z,94.30
2019-03-18T03:50:31.422Z,94.20
2019-03-18T03:53:00.225Z,94.30
2019-03-18T03:55:29.063Z,94.20
2019-03-18T03:57:57.922Z,94.30
2019-03-18T04:00:27.099Z,94.10
2019-03-18T04:02:55.939Z,94.00
2019-03-18T04:05:25.072Z,93.70
2019-03-18T04:07:53.838Z,93.60
2019-03-18T04:10:22.645Z,93.60
2019-03-18T04:12:51.514Z,93.50
2019-03-18T04:15:20.319Z,93.40
2019-03-18T04:17:49.140Z,93.30
2019-03-18T04:20:18.190Z,93.50
2019-03-18T04:22:47.109Z,93.40
2019-03-18T04:25:15.877Z,93.30
2019-03-18T04:27:44.714Z,93.30
2019-03-18T04:30:16.791Z,93.30
2019-03-18T04:32:45.644Z,93.50
2019-03-18T04:35:14.466Z,93.70
2019-03-18T04:37:43.348Z,93.40
2019-03-18T04:40:12.410Z,93.60
2019-03-18T04:42:41.648Z,93.40
2019-03-18T04:45:11.060Z,93.60
2019-03-18T04:47:39.777Z,93.50
2019-03-18T04:50:10.500Z,93.30
2019-03-18T04:52:39.330Z,93.40
2019-03-18T04:55:08.901Z,93.20
2019-03-18T04:57:37.682Z,93.00
2019-03-18T05:00:09.049Z,93.20
2019-03-18T05:02:38.807Z,93.10
2019-03-18T05:05:07.684Z,92.90
2019-03-18T05:07:36.530Z,93.10
2019-03-18T05:10:08.045Z,92.90
2019-03-18T05:12:38.404Z,92.90
2019-03-18T05:15:08.803Z,92.60
2019-03-18T05:17:38.017Z,92.60
2019-03-18T05:20:11.251Z,92.30
2019-03-18T05:22:41.071Z,92.50
2019-03-18T05:25:10.683Z,92.10
2019-03-18T05:27:39.522Z,92.40
2019-03-18T05:30:15.048Z,92.30
2019-03-18T05:32:43.891Z,92.00
2019-03-18T05:35:12.695Z,92.60
2019-03-18T05:37:41.913Z,92.10
2019-03-18T05:40:12.350Z,92.20
2019-03-18T05:42:41.545Z,92.80
2019-03-18T05:45:11.402Z,92.50
2019-03-18T05:47:40.327Z,92.70
2019-03-18T05:50:10.680Z,93.10
2019-03-18T05:52:39.514Z,93.20
2019-03-18T05:55:10.059Z,93.40
2019-03-18T05:57:40.831Z,93.20
2019-03-18T06:00:15.486Z,93.30
2019-03-18T06:02:46.796Z,93.50
2019-03-18T06:05:15.098Z,93.90
2019-03-18T06:07:44.473Z,93.80
2019-03-18T06:10:13.885Z,94.10
2019-03-18T06:12:42.781Z,94.10
2019-03-18T06:15:14.564Z,94.30
2019-03-18T06:17:52.192Z,94.50
2019-03-18T06:20:14.049Z,94.20
2019-03-18T06:22:42.991Z,94.40
2019-03-18T06:25:11.798Z,94.00
2019-03-18T06:27:40.898Z,93.70
2019-03-18T06:30:14.404Z,93.80
2019-03-18T06:32:43.233Z,93.40
2019-03-18T06:35:13.336Z,93.80
2019-03-18T06:37:42.471Z,93.50
2019-03-18T06:40:13.057Z,93.70
2019-03-18T06:42:41.892Z,93.80
2019-03-18T06:45:14.014Z,93.90
2019-03-18T06:47:43.192Z,94.20
2019-03-18T06:50:33.000Z,94.20
2019-03-18T06:53:02.146Z,94.80
2019-03-18T06:55:30.946Z,94.30
2019-03-18T06:57:59.801Z,94.40
2019-03-18T07:00:28.636Z,94.60
2019-03-18T07:02:58.682Z,93.90
2019-03-18T07:05:28.497Z,94.00
2019-03-18T07:07:57.218Z,93.80
2019-03-18T07:10:25.972Z,93.60
2019-03-18T07:12:54.766Z,93.20
2019-03-18T07:15:23.593Z,93.50
2019-03-18T07:17:53.913Z,92.80
2019-03-18T07:20:22.757Z,92.90
2019-03-18T07:22:51.790Z,92.90
2019-03-18T07:25:20.594Z,92.70
2019-03-18T07:27:49.431Z,92.80
2019-03-18T07:30:18.277Z,92.90
2019-03-18T07:32:47.077Z,92.90
2019-03-18T07:35:15.894Z,93.50
2019-03-18T07:37:45.706Z,93.20
2019-03-18T07:40:15.728Z,93.30
2019-03-18T07:42:44.579Z,93.10
2019-03-18T07:45:16.102Z,93.10
2019-03-18T07:47:45.149Z,93.20
2019-03-18T07:50:15.086Z,93.30
2019-03-18T07:52:44.941Z,93.20
2019-03-18T07:55:14.214Z,92.70
2019-03-18T07:57:43.499Z,92.50
2019-03-18T08:00:14.044Z,92.30
2019-03-18T08:02:43.173Z,92.30
2019-03-18T08:05:12.089Z,92.30
2019-03-18T08:07:40.889Z,92.00
2019-03-18T08:10:12.864Z,91.50
2019-03-18T08:12:41.663Z,91.50
2019-03-18T08:15:11.710Z,91.10
2019-03-18T08:17:40.488Z,91.50
2019-03-18T08:20:13.816Z,91.30
2019-03-18T08:22:42.598Z,90.70
2019-03-18T08:25:11.635Z,90.40
2019-03-18T08:27:40.465Z,91.00
2019-03-18T08:30:19.571Z,90.40
2019-03-18T08:32:50.088Z,90.50
2019-03-18T08:35:19.298Z,90.90
2019-03-18T08:37:49.537Z,90.30
2019-03-18T08:40:18.453Z,90.50
2019-03-18T08:42:47.677Z,90.40
2019-03-18T08:45:16.516Z,90.60
2019-03-18T08:47:45.372Z,90.20
2019-03-18T08:50:14.430Z,90.10
2019-03-18T08:52:43.650Z,89.60
2019-03-18T08:55:12.741Z,90.30
2019-03-18T08:57:41.582Z,88.90
2019-03-18T09:00:15.791Z,88.40
2019-03-18T09:02:44.616Z,90.00
2019-03-18T09:05:13.625Z,87.80
2019-03-18T09:07:43.912Z,90.90
2019-03-18T09:10:14.020Z,88.90
2019-03-18T09:12:42.862Z,88.60
2019-03-18T09:15:12.564Z,90.30
2019-03-18T09:17:53.643Z,86.50
2019-03-18T09:20:24.158Z,86.20
2019-03-18T09:22:52.942Z,88.70
2019-03-18T09:25:21.720Z,87.30
2019-03-18T09:27:50.612Z,86.10
2019-03-18T09:30:20.565Z,86.10
2019-03-18T09:32:49.383Z,84.50
2019-03-18T09:35:18.501Z,85.00
2019-03-18T09:37:47.713Z,84.10
2019-03-18T09:40:16.947Z,83.20
2019-03-18T09:42:46.110Z,87.10
2019-03-18T09:45:16.280Z,84.40
2019-03-18T09:47:45.057Z,87.80
2019-03-18T09:50:14.667Z,82.30
2019-03-18T09:52:43.819Z,80.90
2019-03-18T09:55:13.156Z,81.20
2019-03-18T09:57:43.199Z,81.00
2019-03-18T10:00:14.440Z,78.70
2019-03-18T10:02:43.667Z,79.90
2019-03-18T10:05:12.463Z,80.00
2019-03-18T10:07:41.304Z,78.80
2019-03-18T10:10:11.510Z,77.50
2019-03-18T10:12:40.349Z,79.30
2019-03-18T10:15:17.551Z,78.40
2019-03-18T10:17:46.448Z,76.90
2019-03-18T10:20:15.251Z,84.20
2019-03-18T10:22:44.086Z,79.30
2019-03-18T10:25:12.854Z,76.70
2019-03-18T10:27:41.694Z,76.50
2019-03-18T10:30:12.772Z,74.00
2019-03-18T10:32:41.561Z,74.10
2019-03-18T10:35:10.909Z,73.00
2019-03-18T10:37:39.717Z,71.50
2019-03-18T10:40:14.929Z,68.50
2019-03-18T10:42:43.736Z,67.20
2019-03-18T10:45:13.342Z,64.20
2019-03-18T10:47:43.560Z,65.00
2019-03-18T10:50:16.395Z,72.80
2019-03-18T10:52:45.256Z,64.10
2019-03-18T10:55:14.429Z,69.30
2019-03-18T10:57:43.252Z,72.80
2019-03-18T11:00:14.850Z,65.20
2019-03-18T11:02:45.131Z,67.80
2019-03-18T11:05:14.816Z,64.70
2019-03-18T11:07:43.641Z,64.10
2019-03-18T11:10:13.924Z,63.40
2019-03-18T11:12:42.632Z,65.60
2019-03-18T11:15:16.798Z,65.90
2019-03-18T11:17:46.270Z,58.70
2019-03-18T11:20:17.099Z,62.50
2019-03-18T11:22:45.907Z,62.10
2019-03-18T11:25:15.569Z,57.60
2019-03-18T11:27:44.422Z,59.10
2019-03-18T11:30:20.246Z,54.00
2019-03-18T11:32:49.090Z,65.00
2019-03-18T11:35:17.923Z,66.00
2019-03-18T11:37:46.855Z,56.60
2019-03-18T11:40:19.849Z,57.90
2019-03-18T11:42:48.758Z,57.50
2019-03-18T11:45:18.092Z,58.80
2019-03-18T11:47:47.196Z,57.50
2019-03-18T11:50:20.580Z,61.00
2019-03-18T11:52:49.370Z,57.40
2019-03-18T11:55:20.486Z,53.80
2019-03-18T11:57:50.226Z,55.00
2019-03-18T12:00:20.582Z,55.90
2019-03-18T12:02:49.381Z,56.60
2019-03-18T12:05:23.248Z,57.60
2019-03-18T12:07:52.438Z,58.10
2019-03-18T12:10:25.116Z,59.00
2019-03-18T12:12:52.352Z,53.70
2019-03-18T12:15:23.557Z,57.80
2019-03-18T12:17:53.662Z,56.60
2019-03-18T12:20:25.459Z,56.00
2019-03-18T12:22:53.432Z,55.90
2019-03-18T12:25:22.327Z,56.70
2019-03-18T12:27:51.223Z,58.80
2019-03-18T12:30:27.916Z,57.80
2019-03-18T12:32:56.757Z,56.40
2019-03-18T12:35:25.566Z,53.40
2019-03-18T12:37:54.482Z,54.80
2019-03-18T12:40:23.683Z,56.20
2019-03-18T12:42:52.470Z,53.70
2019-03-18T12:45:22.118Z,55.50
2019-03-18T12:47:50.910Z,57.90
2019-03-18T12:50:43.190Z,54.70
2019-03-18T12:52:54.856Z,55.40
2019-03-18T12:55:23.684Z,57.20
2019-03-18T12:57:52.503Z,56.50
2019-03-18T13:00:27.427Z,56.20
2019-03-18T13:02:56.420Z,57.00
2019-03-18T13:05:25.290Z,54.60
2019-03-18T13:07:54.068Z,56.30
2019-03-18T13:10:22.917Z,57.80
2019-03-18T13:12:51.707Z,56.80
2019-03-18T13:15:21.242Z,58.70
2019-03-18T13:17:50.106Z,58.70
2019-03-18T13:20:20.417Z,58.70
2019-03-18T13:22:49.294Z,56.00
2019-03-18T13:25:18.098Z,57.20
2019-03-18T13:27:46.935Z,57.90
2019-03-18T13:30:23.454Z,58.70
2019-03-18T13:32:52.361Z,57.30
2019-03-18T13:35:21.154Z,56.30
2019-03-18T13:37:50.021Z,54.50
2019-03-18T13:40:19.573Z,54.50
2019-03-18T13:42:48.406Z,55.90
2019-03-18T13:45:21.501Z,55.70
2019-03-18T13:47:50.490Z,55.20
2019-03-18T13:50:22.519Z,56.20
2019-03-18T13:52:51.335Z,57.50
2019-03-18T13:55:20.711Z,55.50
2019-03-18T13:57:49.646Z,56.40
2019-03-18T14:00:22.579Z,56.60
2019-03-18T14:02:51.399Z,54.70
2019-03-18T14:05:20.247Z,60.20
2019-03-18T14:07:59.696Z,60.30
2019-03-18T14:10:23.411Z,56.10
2019-03-18T14:12:52.610Z,57.70
2019-03-18T14:15:23.516Z,57.60
2019-03-18T14:17:52.356Z,57.00
2019-03-18T14:20:30.507Z,58.90
2019-03-18T14:22:59.321Z,57.20
2019-03-18T14:25:28.245Z,58.10
2019-03-18T14:27:57.070Z,59.70
2019-03-18T14:30:25.869Z,59.90
2019-03-18T14:32:56.024Z,63.40
2019-03-18T14:35:24.805Z,62.80
2019-03-18T14:37:53.654Z,63.90
2019-03-18T14:40:24.734Z,61.60
2019-03-18T14:42:54.057Z,60.30
2019-03-18T14:45:25.857Z,58.70
2019-03-18T14:47:54.643Z,59.80
2019-03-18T14:50:23.461Z,58.30
2019-03-18T14:52:52.661Z,60.70
2019-03-18T14:55:21.467Z,57.90
2019-03-18T14:57:50.253Z,59.10
2019-03-18T15:00:24.160Z,60.60
2019-03-18T15:02:52.995Z,59.30
2019-03-18T15:05:21.732Z,57.20
2019-03-18T15:07:50.545Z,56.70
2019-03-18T15:10:23.428Z,59.10
2019-03-18T15:12:52.163Z,59.10
2019-03-18T15:15:21.361Z,61.70
2019-03-18T15:17:50.167Z,56.10
2019-03-18T15:20:21.476Z,58.30
2019-03-18T15:22:50.283Z,57.20
2019-03-18T15:25:22.052Z,57.60
2019-03-18T15:27:51.096Z,58.70
2019-03-18T15:30:21.995Z,61.90
2019-03-18T15:32:50.794Z,57.70
2019-03-18T15:35:19.596Z,57.20
2019-03-18T15:37:48.392Z,57.50
2019-03-18T15:40:19.589Z,56.80
2019-03-18T15:42:50.130Z,57.40
2019-03-18T15:45:25.237Z,59.90
2019-03-18T15:47:56.608Z,61.10
2019-03-18T15:50:28.545Z,57.00
2019-03-18T15:52:59.225Z,59.50
2019-03-18T15:55:33.687Z,57.00
2019-03-18T15:58:04.757Z,57.90
2019-03-18T16:00:36.546Z,56.30
2019-03-18T16:03:06.205Z,57.30
2019-03-18T16:05:37.877Z,55.90
2019-03-18T16:08:07.492Z,56.30
2019-03-18T16:10:36.706Z,55.00
2019-03-18T16:13:07.985Z,56.00
2019-03-18T16:15:39.356Z,57.20
2019-03-18T16:18:10.276Z,57.50
2019-03-18T16:20:42.767Z,57.00
2019-03-18T16:23:12.782Z,57.20
2019-03-18T16:25:43.953Z,56.90
2019-03-18T16:28:15.296Z,60.80
2019-03-18T16:30:46.074Z,59.20
2019-03-18T16:33:17.588Z,58.70
2019-03-18T16:35:50.849Z,60.70
2019-03-18T16:38:22.209Z,59.80
2019-03-18T16:40:51.532Z,63.40
2019-03-18T16:43:20.605Z,63.70
2019-03-18T16:45:55.032Z,64.40
2019-03-18T16:48:27.295Z,65.10
2019-03-18T16:50:58.030Z,67.30
2019-03-18T16:53:31.122Z,67.40
2019-03-18T16:56:05.944Z,66.60
2019-03-18T16:58:37.324Z,65.60
2019-03-18T17:01:10.906Z,67.20
2019-03-18T17:03:41.638Z,65.70
2019-03-18T17:06:12.905Z,65.40
2019-03-18T17:08:47.562Z,67.70
2019-03-18T17:11:19.810Z,68.90
2019-03-18T17:13:50.070Z,69.20
2019-03-18T17:16:22.784Z,70.60
2019-03-18T17:18:53.900Z,71.60
2019-03-18T17:21:23.938Z,73.40
2019-03-18T17:26:42.508Z,74.00
2019-03-18T17:29:18.346Z,75.60
2019-03-18T17:31:51.077Z,77.10
2019-03-18T17:34:21.204Z,78.30
2019-03-18T17:36:50.119Z,78.50
2019-03-18T17:39:20.910Z,79.60
2019-03-18T17:41:50.597Z,80.70
2019-03-18T17:44:20.953Z,82.20
2019-03-18T17:46:52.871Z,82.80
2019-03-18T17:49:25.322Z,83.30
2019-03-18T17:51:55.528Z,84.10
2019-03-18T17:54:27.441Z,85.40
2019-03-18T17:57:07.120Z,86.10
2019-03-18T17:59:29.882Z,87.00
2019-03-18T18:02:01.524Z,87.70
2019-03-18T18:04:33.223Z,88.50
2019-03-18T18:07:04.004Z,89.30
2019-03-18T18:09:34.859Z,89.70
2019-03-18T18:12:04.681Z,90.00
2019-03-18T18:14:39.991Z,90.50
2019-03-18T18:17:13.837Z,90.80
2019-03-18T18:19:43.203Z,90.90
2019-03-18T18:22:14.530Z,90.90
2019-03-18T18:24:45.776Z,91.30
2019-03-18T18:27:19.264Z,91.40
2019-03-18T18:29:52.172Z,91.70
2019-03-18T18:32:23.318Z,91.70
2019-03-18T18:34:54.235Z,91.80
2019-03-18T18:37:24.982Z,92.00
2019-03-18T18:39:56.323Z,92.00
2019-03-18T18:42:29.248Z,92.10
2019-03-18T18:45:03.396Z,92.30
2019-03-18T18:47:33.460Z,92.40
2019-03-18T18:50:10.498Z,92.50
2019-03-18T18:52:44.261Z,92.40
2019-03-18T18:55:17.284Z,92.70
2019-03-18T18:57:53.862Z,92.60
2019-03-18T19:00:27.604Z,92.90
2019-03-18T19:02:59.175Z,93.30
2019-03-18T19:05:30.092Z,93.80
2019-03-18T19:08:02.626Z,93.60
2019-03-18T19:10:37.595Z,94.20
2019-03-18T19:13:06.497Z,94.00
2019-03-18T19:15:44.918Z,94.30
2019-03-18T19:18:15.775Z,94.60
2019-03-18T19:20:46.090Z,94.80
2019-03-18T19:23:19.062Z,94.80
2019-03-18T19:25:51.778Z,95.10
2019-03-18T19:28:23.392Z,95.10
2019-03-18T19:30:54.690Z,95.20
2019-03-18T19:33:26.928Z,95.30
2019-03-18T19:35:57.618Z,95.50
2019-03-18T19:38:26.982Z,95.30
2019-03-18T19:40:58.855Z,95.60
2019-03-18T19:43:30.721Z,95.90
2019-03-18T19:46:04.239Z,96.70
2019-03-18T19:48:46.733Z,96.50
2019-03-18T19:51:21.303Z,96.70
2019-03-18T19:53:52.573Z,96.70
2019-03-18T19:56:23.170Z,96.70
2019-03-18T19:58:56.156Z,96.80
2019-03-18T20:01:25.844Z,96.80
2019-03-18T20:03:56.405Z,96.70
2019-03-18T20:06:29.533Z,96.40
2019-03-18T20:09:01.647Z,96.10
2019-03-18T20:11:32.000Z,96.00
2019-03-18T20:14:02.290Z,96.40
2019-03-18T20:16:33.637Z,96.50
2019-03-18T20:19:03.921Z,96.60
2019-03-18T20:21:38.046Z,96.50
2019-03-18T20:24:09.410Z,96.30
2019-03-18T20:26:40.959Z,96.60
2019-03-18T20:29:12.640Z,96.70
2019-03-18T20:31:43.807Z,96.80
2019-03-18T20:34:14.735Z,97.60
2019-03-18T20:36:46.292Z,97.20
2019-03-18T20:39:21.462Z,97.40
2019-03-18T20:41:51.381Z,98.00
2019-03-18T20:44:25.067Z,97.80
2019-03-18T20:46:58.951Z,98.60
2019-03-18T20:49:30.762Z,98.50
2019-03-18T20:52:01.498Z,98.70
2019-03-18T20:54:37.371Z,98.80
2019-03-18T20:57:06.812Z,98.90
2019-03-18T20:59:37.844Z,99.10
2019-03-18T21:02:07.858Z,99.80
2019-03-18T21:04:39.102Z,99.70
2019-03-18T21:07:10.287Z,99.80
2019-03-18T21:09:42.990Z,99.90
2019-03-18T21:12:13.524Z,99.90
2019-03-18T21:14:45.765Z,99.90
2019-03-18T21:17:16.646Z,99.90
2019-03-18T21:19:48.301Z,99.90
2019-03-18T21:22:19.156Z,99.90
2019-03-18T21:24:50.324Z,99.90
2019-03-18T21:27:26.355Z,99.90
2019-03-18T21:29:57.684Z,99.90
2019-03-18T21:32:26.647Z,99.90
2019-03-18T21:34:55.840Z,99.90
2019-03-18T21:37:29.121Z,99.90
2019-03-18T21:39:58.950Z,99.90
2019-03-18T21:42:33.012Z,99.90
2019-03-18T21:45:02.231Z,99.90
2019-03-18T21:47:32.991Z,99.90
2019-03-18T21:50:06.099Z,99.90
2019-03-18T21:52:37.034Z,99.90
2019-03-18T21:55:08.354Z,99.90
2019-03-18T21:57:37.410Z,99.90
2019-03-18T22:00:12.745Z,99.90
2019-03-18T22:02:44.105Z,99.90
2019-03-18T22:05:16.280Z,99.90
2019-03-18T22:07:48.924Z,99.90
2019-03-18T22:10:19.441Z,99.90
2019-03-18T22:12:50.431Z,99.90
2019-03-18T22:15:20.199Z,99.90
2019-03-18T22:17:49.139Z,99.90
2019-03-18T22:20:22.363Z,99.90
2019-03-18T22:22:52.391Z,99.90
2019-03-18T22:25:22.860Z,99.90
2019-03-18T22:27:53.990Z,99.90
2019-03-18T22:30:22.982Z,99.90
2019-03-18T22:32:54.757Z,99.90
2019-03-18T22:35:26.736Z,99.90
2019-03-18T22:37:55.672Z,99.90
2019-03-18T22:40:28.796Z,99.90
2019-03-18T22:43:00.119Z,99.90
2019-03-18T22:45:31.713Z,99.90
2019-03-18T22:48:02.810Z,99.90
2019-03-18T22:50:35.534Z,99.90
2019-03-18T22:53:07.048Z,99.90
2019-03-18T22:55:37.343Z,99.90
2019-03-18T22:58:08.676Z,99.90
2019-03-18T23:00:39.340Z,99.90
2019-03-18T23:03:13.832Z,99.90
2019-03-18T23:05:44.501Z,99.90
2019-03-18T23:08:15.773Z,99.90
2019-03-18T23:10:50.955Z,99.90
2019-03-18T23:13:20.981Z,99.90
2019-03-18T23:15:50.205Z,99.90
2019-03-18T23:18:23.411Z,99.90
2019-03-18T23:20:54.097Z,99.90
2019-03-18T23:23:24.396Z,99.90
2019-03-18T23:25:57.893Z,99.90
2019-03-18T23:28:30.076Z,99.90
2019-03-18T23:31:00.346Z,99.90
2019-03-18T23:33:35.372Z,99.90
2019-03-18T23:36:08.148Z,99.90
2019-03-18T23:38:39.369Z,99.90
2019-03-18T23:41:10.106Z,99.90
2019-03-18T23:43:39.700Z,99.90
2019-03-18T23:46:12.385Z,99.90
2019-03-18T23:48:41.913Z,99.90
2019-03-18T23:51:14.125Z,99.90
2019-03-18T23:53:46.054Z,99.90
2019-03-18T23:56:18.243Z,99.90
2019-03-18T23:58:50.914Z,99.90
